sensor_id;sensor_type;location;lat;lon;timestamp;P1;durP1;ratioP1;P2;durP2;ratioP2
64361;SDS011;50685;53.346;-6.296;2023-04-24T00:00:04;14.90;;;9.80;;
64361;SDS011;50685;53.346;-6.296;2023-04-24T00:02:31;17.92;;;9.48;;
64361;SDS011;50685;53.346;-6.296;2023-04-24T00:04:57;16.05;;;9.88;;
64361;SDS011;50685;53.346;-6.296;2023-04-24T00:07:27;19.45;;;8.55;;
64361;SDS011;50685;53.346;-6.296;2023-04-24T00:09:53;10.98;;;8.30;;
64361;SDS011;50685;53.346;-6.296;2023-04-24T00:12:19;13.80;;;8.20;;
64361;SDS011;50685;53.346;-6.296;2023-04-24T00:14:45;15.15;;;9.38;;
64361;SDS011;50685;53.346;-6.296;2023-04-24T00:17:10;16.48;;;9.32;;
64361;SDS011;50685;53.346;-6.296;2023-04-24T00:19:36;11.63;;;8.45;;
64361;SDS011;50685;53.346;-6.296;2023-04-24T00:22:01;16.38;;;8.55;;
64361;SDS011;50685;53.346;-6.296;2023-04-24T00:24:27;11.10;;;8.73;;
64361;SDS011;50685;53.346;-6.296;2023-04-24T00:26:53;13.43;;;8.73;;
64361;SDS011;50685;53.346;-6.296;2023-04-24T00:29:18;13.48;;;9.15;;
64361;SDS011;50685;53.346;-6.296;2023-04-24T00:31:44;15.85;;;9.07;;
64361;SDS011;50685;53.346;-6.296;2023-04-24T00:34:09;21.08;;;10.55;;
64361;SDS011;50685;53.346;-6.296;2023-04-24T00:36:36;17.80;;;9.68;;
64361;SDS011;50685;53.346;-6.296;2023-04-24T00:39:02;18.10;;;10.80;;
64361;SDS011;50685;53.346;-6.296;2023-04-24T00:41:28;13.52;;;9.65;;
64361;SDS011;50685;53.346;-6.296;2023-04-24T00:43:54;22.13;;;8.88;;
64361;SDS011;50685;53.346;-6.296;2023-04-24T00:46:20;13.77;;;8.45;;
64361;SDS011;50685;53.346;-6.296;2023-04-24T00:48:46;17.42;;;8.75;;
64361;SDS011;50685;53.346;-6.296;2023-04-24T00:51:11;13.63;;;8.20;;
64361;SDS011;50685;53.346;-6.296;2023-04-24T00:53:37;11.40;;;7.38;;
64361;SDS011;50685;53.346;-6.296;2023-04-24T00:56:03;13.65;;;8.73;;
64361;SDS011;50685;53.346;-6.296;2023-04-24T00:58:30;10.15;;;7.47;;
64361;SDS011;50685;53.346;-6.296;2023-04-24T01:00:56;14.38;;;7.80;;
64361;SDS011;50685;53.346;-6.296;2023-04-24T01:03:23;16.27;;;6.95;;
64361;SDS011;50685;53.346;-6.296;2023-04-24T01:05:51;12.45;;;6.85;;
64361;SDS011;50685;53.346;-6.296;2023-04-24T01:08:19;15.50;;;6.65;;
64361;SDS011;50685;53.346;-6.296;2023-04-24T01:10:48;12.02;;;6.30;;
64361;SDS011;50685;53.346;-6.296;2023-04-24T01:13:16;14.40;;;7.25;;
64361;SDS011;50685;53.346;-6.296;2023-04-24T01:15:43;13.27;;;7.03;;
64361;SDS011;50685;53.346;-6.296;2023-04-24T01:18:08;16.30;;;7.15;;
64361;SDS011;50685;53.346;-6.296;2023-04-24T01:20:34;12.20;;;7.20;;
64361;SDS011;50685;53.346;-6.296;2023-04-24T01:23:01;9.10;;;5.95;;
64361;SDS011;50685;53.346;-6.296;2023-04-24T01:25:27;9.52;;;5.95;;
64361;SDS011;50685;53.346;-6.296;2023-04-24T01:27:53;16.05;;;5.93;;
64361;SDS011;50685;53.346;-6.296;2023-04-24T01:30:18;9.68;;;5.90;;
64361;SDS011;50685;53.346;-6.296;2023-04-24T01:32:44;10.70;;;5.28;;
64361;SDS011;50685;53.346;-6.296;2023-04-24T01:35:10;6.38;;;4.60;;
64361;SDS011;50685;53.346;-6.296;2023-04-24T01:37:36;18.35;;;5.85;;
64361;SDS011;50685;53.346;-6.296;2023-04-24T01:40:05;16.02;;;5.70;;
64361;SDS011;50685;53.346;-6.296;2023-04-24T01:42:32;13.50;;;5.15;;
64361;SDS011;50685;53.346;-6.296;2023-04-24T01:44:58;12.73;;;5.25;;
64361;SDS011;50685;53.346;-6.296;2023-04-24T01:47:27;12.68;;;5.40;;
64361;SDS011;50685;53.346;-6.296;2023-04-24T01:49:53;10.60;;;4.78;;
64361;SDS011;50685;53.346;-6.296;2023-04-24T01:52:18;8.35;;;4.53;;
64361;SDS011;50685;53.346;-6.296;2023-04-24T01:54:44;9.73;;;5.47;;
64361;SDS011;50685;53.346;-6.296;2023-04-24T01:57:10;11.75;;;4.65;;
64361;SDS011;50685;53.346;-6.296;2023-04-24T01:59:35;9.45;;;4.72;;
64361;SDS011;50685;53.346;-6.296;2023-04-24T02:02:01;11.60;;;5.03;;
64361;SDS011;50685;53.346;-6.296;2023-04-24T02:04:27;9.15;;;4.70;;
64361;SDS011;50685;53.346;-6.296;2023-04-24T02:06:53;9.65;;;5.30;;
64361;SDS011;50685;53.346;-6.296;2023-04-24T02:09:19;12.73;;;5.47;;
64361;SDS011;50685;53.346;-6.296;2023-04-24T02:11:45;14.05;;;4.82;;
64361;SDS011;50685;53.346;-6.296;2023-04-24T02:14:10;10.90;;;5.47;;
64361;SDS011;50685;53.346;-6.296;2023-04-24T02:16:36;10.23;;;5.63;;
64361;SDS011;50685;53.346;-6.296;2023-04-24T02:19:02;17.15;;;5.75;;
64361;SDS011;50685;53.346;-6.296;2023-04-24T02:21:28;17.13;;;5.90;;
64361;SDS011;50685;53.346;-6.296;2023-04-24T02:23:53;17.20;;;5.10;;
64361;SDS011;50685;53.346;-6.296;2023-04-24T02:26:19;15.40;;;5.18;;
64361;SDS011;50685;53.346;-6.296;2023-04-24T02:28:45;10.57;;;5.75;;
64361;SDS011;50685;53.346;-6.296;2023-04-24T02:31:10;10.20;;;5.35;;
64361;SDS011;50685;53.346;-6.296;2023-04-24T02:33:36;8.95;;;5.28;;
64361;SDS011;50685;53.346;-6.296;2023-04-24T02:36:01;14.20;;;6.20;;
64361;SDS011;50685;53.346;-6.296;2023-04-24T02:38:28;12.25;;;5.43;;
64361;SDS011;50685;53.346;-6.296;2023-04-24T02:40:54;9.48;;;4.97;;
64361;SDS011;50685;53.346;-6.296;2023-04-24T02:43:20;13.23;;;5.10;;
64361;SDS011;50685;53.346;-6.296;2023-04-24T02:45:45;11.57;;;5.68;;
64361;SDS011;50685;53.346;-6.296;2023-04-24T02:48:11;11.75;;;5.63;;
64361;SDS011;50685;53.346;-6.296;2023-04-24T02:50:36;13.02;;;6.03;;
64361;SDS011;50685;53.346;-6.296;2023-04-24T02:53:02;11.35;;;5.95;;
64361;SDS011;50685;53.346;-6.296;2023-04-24T02:55:28;12.13;;;5.53;;
64361;SDS011;50685;53.346;-6.296;2023-04-24T02:57:53;13.50;;;5.35;;
64361;SDS011;50685;53.346;-6.296;2023-04-24T03:00:19;10.88;;;5.47;;
64361;SDS011;50685;53.346;-6.296;2023-04-24T03:02:44;10.27;;;5.30;;
64361;SDS011;50685;53.346;-6.296;2023-04-24T03:05:10;20.38;;;6.60;;
64361;SDS011;50685;53.346;-6.296;2023-04-24T03:07:37;11.55;;;5.15;;
64361;SDS011;50685;53.346;-6.296;2023-04-24T03:10:03;12.38;;;5.40;;
64361;SDS011;50685;53.346;-6.296;2023-04-24T03:12:30;12.75;;;5.85;;
64361;SDS011;50685;53.346;-6.296;2023-04-24T03:14:56;9.23;;;5.35;;
64361;SDS011;50685;53.346;-6.296;2023-04-24T03:17:21;12.00;;;5.47;;
64361;SDS011;50685;53.346;-6.296;2023-04-24T03:19:47;9.63;;;5.38;;
64361;SDS011;50685;53.346;-6.296;2023-04-24T03:22:12;9.60;;;4.95;;
64361;SDS011;50685;53.346;-6.296;2023-04-24T03:24:38;10.77;;;4.95;;
64361;SDS011;50685;53.346;-6.296;2023-04-24T03:27:04;7.65;;;5.13;;
64361;SDS011;50685;53.346;-6.296;2023-04-24T03:29:29;11.85;;;5.10;;
64361;SDS011;50685;53.346;-6.296;2023-04-24T03:31:55;12.23;;;5.68;;
64361;SDS011;50685;53.346;-6.296;2023-04-24T03:34:20;9.13;;;5.60;;
64361;SDS011;50685;53.346;-6.296;2023-04-24T03:36:46;8.93;;;4.90;;
64361;SDS011;50685;53.346;-6.296;2023-04-24T03:39:14;12.25;;;3.80;;
64361;SDS011;50685;53.346;-6.296;2023-04-24T03:41:39;9.77;;;3.72;;
64361;SDS011;50685;53.346;-6.296;2023-04-24T03:44:05;10.40;;;3.78;;
64361;SDS011;50685;53.346;-6.296;2023-04-24T03:46:31;11.30;;;3.58;;
64361;SDS011;50685;53.346;-6.296;2023-04-24T03:48:56;13.35;;;3.63;;
64361;SDS011;50685;53.346;-6.296;2023-04-24T03:51:21;10.75;;;3.55;;
64361;SDS011;50685;53.346;-6.296;2023-04-24T03:53:47;6.80;;;3.55;;
64361;SDS011;50685;53.346;-6.296;2023-04-24T03:56:13;3.58;;;2.67;;
64361;SDS011;50685;53.346;-6.296;2023-04-24T03:58:39;8.38;;;3.17;;
64361;SDS011;50685;53.346;-6.296;2023-04-24T04:01:04;6.22;;;2.70;;
64361;SDS011;50685;53.346;-6.296;2023-04-24T04:03:30;8.63;;;3.05;;
64361;SDS011;50685;53.346;-6.296;2023-04-24T04:05:56;8.27;;;2.38;;
64361;SDS011;50685;53.346;-6.296;2023-04-24T04:08:21;6.30;;;2.33;;
64361;SDS011;50685;53.346;-6.296;2023-04-24T04:10:46;8.23;;;2.33;;
64361;SDS011;50685;53.346;-6.296;2023-04-24T04:13:12;11.65;;;2.53;;
64361;SDS011;50685;53.346;-6.296;2023-04-24T04:15:37;8.15;;;2.92;;
64361;SDS011;50685;53.346;-6.296;2023-04-24T04:18:03;4.25;;;2.13;;
64361;SDS011;50685;53.346;-6.296;2023-04-24T04:20:28;5.15;;;2.60;;
64361;SDS011;50685;53.346;-6.296;2023-04-24T04:22:54;9.13;;;2.08;;
64361;SDS011;50685;53.346;-6.296;2023-04-24T04:25:19;8.90;;;2.80;;
64361;SDS011;50685;53.346;-6.296;2023-04-24T04:27:46;8.73;;;2.75;;
64361;SDS011;50685;53.346;-6.296;2023-04-24T04:30:13;8.65;;;2.38;;
64361;SDS011;50685;53.346;-6.296;2023-04-24T04:32:39;12.90;;;2.20;;
64361;SDS011;50685;53.346;-6.296;2023-04-24T04:35:05;4.97;;;2.00;;
64361;SDS011;50685;53.346;-6.296;2023-04-24T04:37:31;6.78;;;2.10;;
64361;SDS011;50685;53.346;-6.296;2023-04-24T04:39:58;6.03;;;2.30;;
64361;SDS011;50685;53.346;-6.296;2023-04-24T04:42:24;6.57;;;2.58;;
64361;SDS011;50685;53.346;-6.296;2023-04-24T04:44:51;5.22;;;2.38;;
64361;SDS011;50685;53.346;-6.296;2023-04-24T04:47:18;8.70;;;2.13;;
64361;SDS011;50685;53.346;-6.296;2023-04-24T04:49:49;17.08;;;2.55;;
64361;SDS011;50685;53.346;-6.296;2023-04-24T04:52:21;4.55;;;2.28;;
64361;SDS011;50685;53.346;-6.296;2023-04-24T04:54:50;7.90;;;2.67;;
64361;SDS011;50685;53.346;-6.296;2023-04-24T04:57:15;11.38;;;3.67;;
64361;SDS011;50685;53.346;-6.296;2023-04-24T04:59:40;12.25;;;2.53;;
64361;SDS011;50685;53.346;-6.296;2023-04-24T05:02:06;10.90;;;2.47;;
64361;SDS011;50685;53.346;-6.296;2023-04-24T05:04:32;15.63;;;1.83;;
64361;SDS011;50685;53.346;-6.296;2023-04-24T05:06:57;11.70;;;2.55;;
64361;SDS011;50685;53.346;-6.296;2023-04-24T05:09:23;12.65;;;3.10;;
64361;SDS011;50685;53.346;-6.296;2023-04-24T05:11:52;15.35;;;2.15;;
64361;SDS011;50685;53.346;-6.296;2023-04-24T05:14:18;6.72;;;1.73;;
64361;SDS011;50685;53.346;-6.296;2023-04-24T05:16:44;11.73;;;2.70;;
64361;SDS011;50685;53.346;-6.296;2023-04-24T05:19:10;11.30;;;2.33;;
64361;SDS011;50685;53.346;-6.296;2023-04-24T05:21:36;7.90;;;1.98;;
64361;SDS011;50685;53.346;-6.296;2023-04-24T05:24:02;12.25;;;2.03;;
64361;SDS011;50685;53.346;-6.296;2023-04-24T05:26:28;9.90;;;2.80;;
64361;SDS011;50685;53.346;-6.296;2023-04-24T05:28:53;15.43;;;3.17;;
64361;SDS011;50685;53.346;-6.296;2023-04-24T05:31:19;11.68;;;2.20;;
64361;SDS011;50685;53.346;-6.296;2023-04-24T05:33:47;8.13;;;1.55;;
64361;SDS011;50685;53.346;-6.296;2023-04-24T05:36:13;14.57;;;2.28;;
64361;SDS011;50685;53.346;-6.296;2023-04-24T05:38:39;8.50;;;1.98;;
64361;SDS011;50685;53.346;-6.296;2023-04-24T05:41:05;8.95;;;2.08;;
64361;SDS011;50685;53.346;-6.296;2023-04-24T05:43:30;9.95;;;2.25;;
64361;SDS011;50685;53.346;-6.296;2023-04-24T05:45:56;8.73;;;1.90;;
64361;SDS011;50685;53.346;-6.296;2023-04-24T05:48:21;19.35;;;1.90;;
64361;SDS011;50685;53.346;-6.296;2023-04-24T05:50:49;12.63;;;1.58;;
64361;SDS011;50685;53.346;-6.296;2023-04-24T05:53:15;11.60;;;1.90;;
64361;SDS011;50685;53.346;-6.296;2023-04-24T05:55:41;4.15;;;1.40;;
64361;SDS011;50685;53.346;-6.296;2023-04-24T05:58:06;6.90;;;2.47;;
64361;SDS011;50685;53.346;-6.296;2023-04-24T06:31:00;10.55;;;1.77;;
64361;SDS011;50685;53.346;-6.296;2023-04-24T06:33:26;6.78;;;2.10;;
64361;SDS011;50685;53.346;-6.296;2023-04-24T06:35:52;11.32;;;2.00;;
64361;SDS011;50685;53.346;-6.296;2023-04-24T06:38:18;5.53;;;2.17;;
64361;SDS011;50685;53.346;-6.296;2023-04-24T06:40:50;5.40;;;1.40;;
64361;SDS011;50685;53.346;-6.296;2023-04-24T06:43:15;8.80;;;1.70;;
64361;SDS011;50685;53.346;-6.296;2023-04-24T06:45:41;4.25;;;1.75;;
64361;SDS011;50685;53.346;-6.296;2023-04-24T06:48:08;6.18;;;1.65;;
64361;SDS011;50685;53.346;-6.296;2023-04-24T06:50:35;2.25;;;1.10;;
64361;SDS011;50685;53.346;-6.296;2023-04-24T06:53:00;8.07;;;1.40;;
64361;SDS011;50685;53.346;-6.296;2023-04-24T06:55:26;3.35;;;1.15;;
64361;SDS011;50685;53.346;-6.296;2023-04-24T06:57:53;5.57;;;1.60;;
64361;SDS011;50685;53.346;-6.296;2023-04-24T07:00:19;3.33;;;1.17;;
64361;SDS011;50685;53.346;-6.296;2023-04-24T07:02:45;5.00;;;1.45;;
64361;SDS011;50685;53.346;-6.296;2023-04-24T07:05:12;4.15;;;1.77;;
64361;SDS011;50685;53.346;-6.296;2023-04-24T07:38:34;8.68;;;1.48;;
64361;SDS011;50685;53.346;-6.296;2023-04-24T07:44:11;8.55;;;1.60;;
64361;SDS011;50685;53.346;-6.296;2023-04-24T07:47:11;10.00;;;2.22;;
64361;SDS011;50685;53.346;-6.296;2023-04-24T07:49:37;7.55;;;2.10;;
64361;SDS011;50685;53.346;-6.296;2023-04-24T07:52:13;1.88;;;1.48;;
64361;SDS011;50685;53.346;-6.296;2023-04-24T07:54:58;6.05;;;1.88;;
64361;SDS011;50685;53.346;-6.296;2023-04-24T07:57:27;8.75;;;1.52;;
64361;SDS011;50685;53.346;-6.296;2023-04-24T07:59:55;8.70;;;1.40;;
64361;SDS011;50685;53.346;-6.296;2023-04-24T08:02:26;4.50;;;1.42;;
64361;SDS011;50685;53.346;-6.296;2023-04-24T08:04:57;2.38;;;1.40;;
64361;SDS011;50685;53.346;-6.296;2023-04-24T08:07:27;5.20;;;1.48;;
64361;SDS011;50685;53.346;-6.296;2023-04-24T08:09:57;7.20;;;1.15;;
64361;SDS011;50685;53.346;-6.296;2023-04-24T08:12:29;7.75;;;2.90;;
64361;SDS011;50685;53.346;-6.296;2023-04-24T08:18:04;4.65;;;1.50;;
64361;SDS011;50685;53.346;-6.296;2023-04-24T08:20:29;11.98;;;1.63;;
64361;SDS011;50685;53.346;-6.296;2023-04-24T08:23:08;14.63;;;2.13;;
64361;SDS011;50685;53.346;-6.296;2023-04-24T08:25:36;4.60;;;1.77;;
64361;SDS011;50685;53.346;-6.296;2023-04-24T08:28:18;6.30;;;1.45;;
64361;SDS011;50685;53.346;-6.296;2023-04-24T08:30:48;3.92;;;1.27;;
64361;SDS011;50685;53.346;-6.296;2023-04-24T08:33:26;5.65;;;1.67;;
64361;SDS011;50685;53.346;-6.296;2023-04-24T08:35:52;3.58;;;1.30;;
64361;SDS011;50685;53.346;-6.296;2023-04-24T08:38:20;4.20;;;1.20;;
64361;SDS011;50685;53.346;-6.296;2023-04-24T08:40:46;4.18;;;1.40;;
64361;SDS011;50685;53.346;-6.296;2023-04-24T08:43:14;4.57;;;1.80;;
64361;SDS011;50685;53.346;-6.296;2023-04-24T08:45:41;4.57;;;1.30;;
64361;SDS011;50685;53.346;-6.296;2023-04-24T08:48:07;5.80;;;1.75;;
64361;SDS011;50685;53.346;-6.296;2023-04-24T08:50:40;10.90;;;2.72;;
64361;SDS011;50685;53.346;-6.296;2023-04-24T08:53:09;5.55;;;1.55;;
64361;SDS011;50685;53.346;-6.296;2023-04-24T08:55:45;4.72;;;1.30;;
64361;SDS011;50685;53.346;-6.296;2023-04-24T08:58:18;7.22;;;1.80;;
64361;SDS011;50685;53.346;-6.296;2023-04-24T09:00:44;7.40;;;1.67;;
64361;SDS011;50685;53.346;-6.296;2023-04-24T09:03:18;6.32;;;1.83;;
64361;SDS011;50685;53.346;-6.296;2023-04-24T09:05:52;6.25;;;1.67;;
64361;SDS011;50685;53.346;-6.296;2023-04-24T09:08:19;17.95;;;3.90;;
64361;SDS011;50685;53.346;-6.296;2023-04-24T09:10:48;3.15;;;1.65;;
64361;SDS011;50685;53.346;-6.296;2023-04-24T09:13:14;8.38;;;2.58;;
64361;SDS011;50685;53.346;-6.296;2023-04-24T09:15:40;6.78;;;2.60;;
64361;SDS011;50685;53.346;-6.296;2023-04-24T09:18:06;15.13;;;7.25;;
64361;SDS011;50685;53.346;-6.296;2023-04-24T09:20:32;10.10;;;4.45;;
64361;SDS011;50685;53.346;-6.296;2023-04-24T09:23:02;2.90;;;1.50;;
64361;SDS011;50685;53.346;-6.296;2023-04-24T09:25:32;13.10;;;2.08;;
64361;SDS011;50685;53.346;-6.296;2023-04-24T09:28:02;5.43;;;1.33;;
64361;SDS011;50685;53.346;-6.296;2023-04-24T09:30:29;7.40;;;1.45;;
64361;SDS011;50685;53.346;-6.296;2023-04-24T09:33:11;10.85;;;1.73;;
64361;SDS011;50685;53.346;-6.296;2023-04-24T09:35:51;6.38;;;1.42;;
64361;SDS011;50685;53.346;-6.296;2023-04-24T09:38:17;10.00;;;1.95;;
64361;SDS011;50685;53.346;-6.296;2023-04-24T09:40:47;6.43;;;1.38;;
64361;SDS011;50685;53.346;-6.296;2023-04-24T09:43:16;6.43;;;1.80;;
64361;SDS011;50685;53.346;-6.296;2023-04-24T09:45:48;5.40;;;1.55;;
64361;SDS011;50685;53.346;-6.296;2023-04-24T09:48:14;5.22;;;1.38;;
64361;SDS011;50685;53.346;-6.296;2023-04-24T09:50:47;5.82;;;1.40;;
64361;SDS011;50685;53.346;-6.296;2023-04-24T09:53:26;7.18;;;1.42;;
64361;SDS011;50685;53.346;-6.296;2023-04-24T09:55:54;7.30;;;1.73;;
64361;SDS011;50685;53.346;-6.296;2023-04-24T09:58:26;3.67;;;1.50;;
64361;SDS011;50685;53.346;-6.296;2023-04-24T10:00:55;8.85;;;2.05;;
64361;SDS011;50685;53.346;-6.296;2023-04-24T10:03:24;5.95;;;1.80;;
64361;SDS011;50685;53.346;-6.296;2023-04-24T10:05:51;6.55;;;1.80;;
64361;SDS011;50685;53.346;-6.296;2023-04-24T10:08:20;1.70;;;1.55;;
64361;SDS011;50685;53.346;-6.296;2023-04-24T10:13:55;4.90;;;1.65;;
64361;SDS011;50685;53.346;-6.296;2023-04-24T10:16:30;5.97;;;2.10;;
64361;SDS011;50685;53.346;-6.296;2023-04-24T10:19:00;8.90;;;1.70;;
64361;SDS011;50685;53.346;-6.296;2023-04-24T10:21:26;9.70;;;2.67;;
64361;SDS011;50685;53.346;-6.296;2023-04-24T10:24:01;9.30;;;1.77;;
64361;SDS011;50685;53.346;-6.296;2023-04-24T10:26:32;7.03;;;1.30;;
64361;SDS011;50685;53.346;-6.296;2023-04-24T10:28:59;5.05;;;1.65;;
64361;SDS011;50685;53.346;-6.296;2023-04-24T10:31:25;10.27;;;1.45;;
64361;SDS011;50685;53.346;-6.296;2023-04-24T10:33:59;6.35;;;1.67;;
64361;SDS011;50685;53.346;-6.296;2023-04-24T10:36:31;7.57;;;1.60;;
64361;SDS011;50685;53.346;-6.296;2023-04-24T10:39:09;4.28;;;1.17;;
64361;SDS011;50685;53.346;-6.296;2023-04-24T10:41:37;6.72;;;1.70;;
64361;SDS011;50685;53.346;-6.296;2023-04-24T10:44:14;5.60;;;1.40;;
64361;SDS011;50685;53.346;-6.296;2023-04-24T10:46:43;6.75;;;1.60;;
64361;SDS011;50685;53.346;-6.296;2023-04-24T10:49:49;5.57;;;1.15;;
64361;SDS011;50685;53.346;-6.296;2023-04-24T10:52:20;10.77;;;1.52;;
64361;SDS011;50685;53.346;-6.296;2023-04-24T10:54:51;7.95;;;1.45;;
64361;SDS011;50685;53.346;-6.296;2023-04-24T10:57:33;7.97;;;1.38;;
64361;SDS011;50685;53.346;-6.296;2023-04-24T11:00:14;7.85;;;1.50;;
64361;SDS011;50685;53.346;-6.296;2023-04-24T11:02:54;5.47;;;1.10;;
64361;SDS011;50685;53.346;-6.296;2023-04-24T11:09:07;6.65;;;1.40;;
64361;SDS011;50685;53.346;-6.296;2023-04-24T11:11:46;5.78;;;1.38;;
64361;SDS011;50685;53.346;-6.296;2023-04-24T11:17:40;3.30;;;1.25;;
64361;SDS011;50685;53.346;-6.296;2023-04-24T11:20:23;7.75;;;1.35;;
64361;SDS011;50685;53.346;-6.296;2023-04-24T11:23:16;11.82;;;2.03;;
64361;SDS011;50685;53.346;-6.296;2023-04-24T11:26:09;4.35;;;1.30;;
64361;SDS011;50685;53.346;-6.296;2023-04-24T11:28:50;6.78;;;1.83;;
64361;SDS011;50685;53.346;-6.296;2023-04-24T11:31:40;6.68;;;2.00;;
64361;SDS011;50685;53.346;-6.296;2023-04-24T11:34:25;10.48;;;1.83;;
64361;SDS011;50685;53.346;-6.296;2023-04-24T11:37:17;6.72;;;1.55;;
64361;SDS011;50685;53.346;-6.296;2023-04-24T11:47:33;6.18;;;1.70;;
64361;SDS011;50685;53.346;-6.296;2023-04-24T11:50:25;8.15;;;1.25;;
64361;SDS011;50685;53.346;-6.296;2023-04-24T11:53:04;5.88;;;2.40;;
64361;SDS011;50685;53.346;-6.296;2023-04-24T11:55:30;9.02;;;1.95;;
64361;SDS011;50685;53.346;-6.296;2023-04-24T11:58:05;6.72;;;1.70;;
64361;SDS011;50685;53.346;-6.296;2023-04-24T12:00:58;15.27;;;1.70;;
64361;SDS011;50685;53.346;-6.296;2023-04-24T12:03:26;4.95;;;1.40;;
64361;SDS011;50685;53.346;-6.296;2023-04-24T12:06:20;8.32;;;2.00;;
64361;SDS011;50685;53.346;-6.296;2023-04-24T12:29:56;4.97;;;1.30;;
64361;SDS011;50685;53.346;-6.296;2023-04-24T12:32:23;7.00;;;1.75;;
64361;SDS011;50685;53.346;-6.296;2023-04-24T12:34:50;9.52;;;1.60;;
64361;SDS011;50685;53.346;-6.296;2023-04-24T12:37:17;9.90;;;1.58;;
64361;SDS011;50685;53.346;-6.296;2023-04-24T12:39:58;9.20;;;1.55;;
64361;SDS011;50685;53.346;-6.296;2023-04-24T12:42:35;6.35;;;1.58;;
64361;SDS011;50685;53.346;-6.296;2023-04-24T12:45:06;8.63;;;1.48;;
64361;SDS011;50685;53.346;-6.296;2023-04-24T12:47:33;9.60;;;2.35;;
64361;SDS011;50685;53.346;-6.296;2023-04-24T12:50:09;9.40;;;1.98;;
64361;SDS011;50685;53.346;-6.296;2023-04-24T12:52:36;7.03;;;1.55;;
64361;SDS011;50685;53.346;-6.296;2023-04-24T12:55:02;5.50;;;1.60;;
64361;SDS011;50685;53.346;-6.296;2023-04-24T12:57:28;4.18;;;1.52;;
64361;SDS011;50685;53.346;-6.296;2023-04-24T12:59:55;6.95;;;1.38;;
64361;SDS011;50685;53.346;-6.296;2023-04-24T13:05:44;7.13;;;2.20;;
64361;SDS011;50685;53.346;-6.296;2023-04-24T13:08:10;5.35;;;2.17;;
64361;SDS011;50685;53.346;-6.296;2023-04-24T13:10:58;10.38;;;1.52;;
64361;SDS011;50685;53.346;-6.296;2023-04-24T13:28:13;4.05;;;1.88;;
64361;SDS011;50685;53.346;-6.296;2023-04-24T13:30:40;2.47;;;1.10;;
64361;SDS011;50685;53.346;-6.296;2023-04-24T13:33:28;8.57;;;1.30;;
64361;SDS011;50685;53.346;-6.296;2023-04-24T13:43:39;18.30;;;2.38;;
64361;SDS011;50685;53.346;-6.296;2023-04-24T13:46:10;12.80;;;2.15;;
64361;SDS011;50685;53.346;-6.296;2023-04-24T13:48:35;5.13;;;1.80;;
64361;SDS011;50685;53.346;-6.296;2023-04-24T13:51:02;9.00;;;1.10;;
64361;SDS011;50685;53.346;-6.296;2023-04-24T13:53:28;13.40;;;1.75;;
64361;SDS011;50685;53.346;-6.296;2023-04-24T13:55:55;5.97;;;1.92;;
64361;SDS011;50685;53.346;-6.296;2023-04-24T13:58:21;5.63;;;1.15;;
64361;SDS011;50685;53.346;-6.296;2023-04-24T14:00:48;14.65;;;1.73;;
64361;SDS011;50685;53.346;-6.296;2023-04-24T14:03:13;4.63;;;1.40;;
64361;SDS011;50685;53.346;-6.296;2023-04-24T14:05:40;5.60;;;1.55;;
64361;SDS011;50685;53.346;-6.296;2023-04-24T14:08:05;6.60;;;1.63;;
64361;SDS011;50685;53.346;-6.296;2023-04-24T14:10:31;7.03;;;1.65;;
64361;SDS011;50685;53.346;-6.296;2023-04-24T14:12:56;8.27;;;1.80;;
64361;SDS011;50685;53.346;-6.296;2023-04-24T14:15:25;7.68;;;1.77;;
64361;SDS011;50685;53.346;-6.296;2023-04-24T14:17:54;4.13;;;1.05;;
64361;SDS011;50685;53.346;-6.296;2023-04-24T14:20:19;7.03;;;1.55;;
64361;SDS011;50685;53.346;-6.296;2023-04-24T14:22:45;7.22;;;1.13;;
64361;SDS011;50685;53.346;-6.296;2023-04-24T14:25:12;6.55;;;1.48;;
64361;SDS011;50685;53.346;-6.296;2023-04-24T14:27:37;7.63;;;1.70;;
64361;SDS011;50685;53.346;-6.296;2023-04-24T14:30:12;10.27;;;1.35;;
64361;SDS011;50685;53.346;-6.296;2023-04-24T14:32:41;4.03;;;1.50;;
64361;SDS011;50685;53.346;-6.296;2023-04-24T14:35:07;6.13;;;1.08;;
64361;SDS011;50685;53.346;-6.296;2023-04-24T14:55:29;6.38;;;1.33;;
64361;SDS011;50685;53.346;-6.296;2023-04-24T14:58:00;4.80;;;1.10;;
64361;SDS011;50685;53.346;-6.296;2023-04-24T15:00:26;12.23;;;1.70;;
64361;SDS011;50685;53.346;-6.296;2023-04-24T15:02:52;4.00;;;1.23;;
64361;SDS011;50685;53.346;-6.296;2023-04-24T15:05:17;15.15;;;1.73;;
64361;SDS011;50685;53.346;-6.296;2023-04-24T15:07:43;4.40;;;1.40;;
64361;SDS011;50685;53.346;-6.296;2023-04-24T15:10:08;2.00;;;1.08;;
64361;SDS011;50685;53.346;-6.296;2023-04-24T15:12:34;7.45;;;1.33;;
64361;SDS011;50685;53.346;-6.296;2023-04-24T15:15:09;14.55;;;1.45;;
64361;SDS011;50685;53.346;-6.296;2023-04-24T16:07:53;3.22;;;1.45;;
64361;SDS011;50685;53.346;-6.296;2023-04-24T16:13:00;3.70;;;0.98;;
64361;SDS011;50685;53.346;-6.296;2023-04-24T16:15:28;2.47;;;1.10;;
64361;SDS011;50685;53.346;-6.296;2023-04-24T16:20:28;3.05;;;1.10;;
64361;SDS011;50685;53.346;-6.296;2023-04-24T16:22:53;3.70;;;1.13;;
64361;SDS011;50685;53.346;-6.296;2023-04-24T16:25:19;5.43;;;1.35;;
64361;SDS011;50685;53.346;-6.296;2023-04-24T16:28:06;3.20;;;1.20;;
64361;SDS011;50685;53.346;-6.296;2023-04-24T16:30:44;5.13;;;1.30;;
64361;SDS011;50685;53.346;-6.296;2023-04-24T16:33:10;2.63;;;1.30;;
64361;SDS011;50685;53.346;-6.296;2023-04-24T16:35:35;5.50;;;1.65;;
64361;SDS011;50685;53.346;-6.296;2023-04-24T16:38:01;2.33;;;1.20;;
64361;SDS011;50685;53.346;-6.296;2023-04-24T16:40:30;4.20;;;1.30;;
64361;SDS011;50685;53.346;-6.296;2023-04-24T16:42:55;6.18;;;1.10;;
64361;SDS011;50685;53.346;-6.296;2023-04-24T16:45:21;2.75;;;1.33;;
64361;SDS011;50685;53.346;-6.296;2023-04-24T16:47:47;3.15;;;1.27;;
64361;SDS011;50685;53.346;-6.296;2023-04-24T16:50:12;4.15;;;1.48;;
64361;SDS011;50685;53.346;-6.296;2023-04-24T16:52:38;5.72;;;1.38;;
64361;SDS011;50685;53.346;-6.296;2023-04-24T16:55:03;6.65;;;1.67;;
64361;SDS011;50685;53.346;-6.296;2023-04-24T16:57:32;4.88;;;1.25;;
64361;SDS011;50685;53.346;-6.296;2023-04-24T17:02:35;5.28;;;1.58;;
64361;SDS011;50685;53.346;-6.296;2023-04-24T17:05:08;2.50;;;1.38;;
64361;SDS011;50685;53.346;-6.296;2023-04-24T17:07:34;8.52;;;1.38;;
64361;SDS011;50685;53.346;-6.296;2023-04-24T17:10:00;1.85;;;1.30;;
64361;SDS011;50685;53.346;-6.296;2023-04-24T17:12:26;6.55;;;1.48;;
64361;SDS011;50685;53.346;-6.296;2023-04-24T17:14:55;4.13;;;1.20;;
64361;SDS011;50685;53.346;-6.296;2023-04-24T17:17:21;4.05;;;1.55;;
64361;SDS011;50685;53.346;-6.296;2023-04-24T17:19:47;3.50;;;1.52;;
64361;SDS011;50685;53.346;-6.296;2023-04-24T17:22:17;7.32;;;1.52;;
64361;SDS011;50685;53.346;-6.296;2023-04-24T17:24:43;2.40;;;1.45;;
64361;SDS011;50685;53.346;-6.296;2023-04-24T17:27:08;3.70;;;0.90;;
64361;SDS011;50685;53.346;-6.296;2023-04-24T17:29:34;3.72;;;1.33;;
64361;SDS011;50685;53.346;-6.296;2023-04-24T17:32:00;3.75;;;1.05;;
64361;SDS011;50685;53.346;-6.296;2023-04-24T17:34:25;4.75;;;1.30;;
64361;SDS011;50685;53.346;-6.296;2023-04-24T17:36:51;10.45;;;1.70;;
64361;SDS011;50685;53.346;-6.296;2023-04-24T17:39:16;4.63;;;1.40;;
64361;SDS011;50685;53.346;-6.296;2023-04-24T17:41:42;3.45;;;1.50;;
64361;SDS011;50685;53.346;-6.296;2023-04-24T17:44:07;4.10;;;1.17;;
64361;SDS011;50685;53.346;-6.296;2023-04-24T17:46:33;3.30;;;1.23;;
64361;SDS011;50685;53.346;-6.296;2023-04-24T17:48:59;2.58;;;1.13;;
64361;SDS011;50685;53.346;-6.296;2023-04-24T17:51:25;3.38;;;0.90;;
64361;SDS011;50685;53.346;-6.296;2023-04-24T17:53:51;4.47;;;1.52;;
64361;SDS011;50685;53.346;-6.296;2023-04-24T17:56:19;4.03;;;1.00;;
64361;SDS011;50685;53.346;-6.296;2023-04-24T17:58:46;7.93;;;0.95;;
64361;SDS011;50685;53.346;-6.296;2023-04-24T18:01:15;9.25;;;1.20;;
64361;SDS011;50685;53.346;-6.296;2023-04-24T18:03:40;2.03;;;1.10;;
64361;SDS011;50685;53.346;-6.296;2023-04-24T18:06:07;4.95;;;1.15;;